sensor_id;sensor_type;location;lat;lon;timestamp;temperature;humidity
12602;DHT22;30282;16.436;99.370;2023-04-25T00:01:30;28.60;99.90
12602;DHT22;30282;16.436;99.370;2023-04-25T00:04:00;28.60;99.90
12602;DHT22;30282;16.436;99.370;2023-04-25T00:06:29;28.70;99.90
12602;DHT22;30282;16.436;99.370;2023-04-25T00:08:59;28.70;99.90
12602;DHT22;30282;16.436;99.370;2023-04-25T00:11:28;28.80;99.90
12602;DHT22;30282;16.436;99.370;2023-04-25T00:13:59;28.80;99.90
12602;DHT22;30282;16.436;99.370;2023-04-25T00:16:29;28.80;99.90
12602;DHT22;30282;16.436;99.370;2023-04-25T00:19:00;28.90;99.90
12602;DHT22;30282;16.436;99.370;2023-04-25T00:21:32;28.90;99.90
12602;DHT22;30282;16.436;99.370;2023-04-25T00:24:04;28.90;99.90
12602;DHT22;30282;16.436;99.370;2023-04-25T00:26:34;29.00;99.90
12602;DHT22;30282;16.436;99.370;2023-04-25T00:29:05;29.10;99.90
12602;DHT22;30282;16.436;99.370;2023-04-25T00:31:35;29.20;99.90
12602;DHT22;30282;16.436;99.370;2023-04-25T00:34:05;29.30;99.90
12602;DHT22;30282;16.436;99.370;2023-04-25T00:36:35;29.40;99.90
12602;DHT22;30282;16.436;99.370;2023-04-25T00:39:04;29.50;99.90
12602;DHT22;30282;16.436;99.370;2023-04-25T00:41:34;29.60;99.90
12602;DHT22;30282;16.436;99.370;2023-04-25T00:44:06;29.70;99.90
12602;DHT22;30282;16.436;99.370;2023-04-25T00:46:39;29.80;99.90
12602;DHT22;30282;16.436;99.370;2023-04-25T00:49:08;29.90;99.90
12602;DHT22;30282;16.436;99.370;2023-04-25T00:51:42;30.00;99.90
12602;DHT22;30282;16.436;99.370;2023-04-25T00:54:12;30.00;99.90
12602;DHT22;30282;16.436;99.370;2023-04-25T00:56:42;30.10;99.90
12602;DHT22;30282;16.436;99.370;2023-04-25T00:59:14;30.10;99.90
12602;DHT22;30282;16.436;99.370;2023-04-25T01:01:44;30.20;99.90
12602;DHT22;30282;16.436;99.370;2023-04-25T01:04:14;30.20;99.90
12602;DHT22;30282;16.436;99.370;2023-04-25T01:06:43;30.30;99.90
12602;DHT22;30282;16.436;99.370;2023-04-25T01:09:13;30.30;99.90
12602;DHT22;30282;16.436;99.370;2023-04-25T01:11:42;30.40;99.90
12602;DHT22;30282;16.436;99.370;2023-04-25T01:14:16;30.50;99.90
12602;DHT22;30282;16.436;99.370;2023-04-25T01:16:45;30.60;99.90
12602;DHT22;30282;16.436;99.370;2023-04-25T01:19:16;30.70;99.90
12602;DHT22;30282;16.436;99.370;2023-04-25T01:21:47;30.80;99.90
12602;DHT22;30282;16.436;99.370;2023-04-25T01:24:17;30.80;99.90
12602;DHT22;30282;16.436;99.370;2023-04-25T01:26:49;30.90;99.90
12602;DHT22;30282;16.436;99.370;2023-04-25T01:29:20;31.00;99.90
12602;DHT22;30282;16.436;99.370;2023-04-25T01:31:52;31.10;99.90
12602;DHT22;30282;16.436;99.370;2023-04-25T01:34:22;31.20;99.90
12602;DHT22;30282;16.436;99.370;2023-04-25T01:36:53;31.30;99.90
12602;DHT22;30282;16.436;99.370;2023-04-25T01:39:22;31.30;99.90
12602;DHT22;30282;16.436;99.370;2023-04-25T01:41:52;31.40;99.90
12602;DHT22;30282;16.436;99.370;2023-04-25T01:44:21;31.50;99.90
12602;DHT22;30282;16.436;99.370;2023-04-25T01:46:51;31.60;99.90
12602;DHT22;30282;16.436;99.370;2023-04-25T01:49:20;31.70;99.90
12602;DHT22;30282;16.436;99.370;2023-04-25T01:51:52;31.70;99.90
12602;DHT22;30282;16.436;99.370;2023-04-25T01:54:21;31.80;99.90
12602;DHT22;30282;16.436;99.370;2023-04-25T01:56:55;32.00;99.90
12602;DHT22;30282;16.436;99.370;2023-04-25T01:59:25;32.00;99.90
12602;DHT22;30282;16.436;99.370;2023-04-25T02:01:55;32.20;99.90
12602;DHT22;30282;16.436;99.370;2023-04-25T02:04:24;32.30;99.90
12602;DHT22;30282;16.436;99.370;2023-04-25T02:06:55;32.40;99.90
12602;DHT22;30282;16.436;99.370;2023-04-25T02:09:24;32.50;99.90
12602;DHT22;30282;16.436;99.370;2023-04-25T02:11:53;32.60;99.90
12602;DHT22;30282;16.436;99.370;2023-04-25T02:14:23;32.70;99.90
12602;DHT22;30282;16.436;99.370;2023-04-25T02:16:52;32.70;99.90
12602;DHT22;30282;16.436;99.370;2023-04-25T02:19:21;32.90;99.90
12602;DHT22;30282;16.436;99.370;2023-04-25T02:21:50;33.00;99.90
12602;DHT22;30282;16.436;99.370;2023-04-25T02:24:21;33.20;99.90
12602;DHT22;30282;16.436;99.370;2023-04-25T02:26:50;33.40;99.90
12602;DHT22;30282;16.436;99.370;2023-04-25T02:29:19;33.60;99.90
12602;DHT22;30282;16.436;99.370;2023-04-25T02:31:49;33.60;99.90
12602;DHT22;30282;16.436;99.370;2023-04-25T02:34:18;33.70;99.90
12602;DHT22;30282;16.436;99.370;2023-04-25T02:36:49;33.90;99.90
12602;DHT22;30282;16.436;99.370;2023-04-25T02:39:20;34.00;99.90
12602;DHT22;30282;16.436;99.370;2023-04-25T02:41:49;34.10;99.90
12602;DHT22;30282;16.436;99.370;2023-04-25T02:44:19;34.30;99.90
12602;DHT22;30282;16.436;99.370;2023-04-25T02:46:48;34.40;99.90
12602;DHT22;30282;16.436;99.370;2023-04-25T02:49:17;34.50;99.90
12602;DHT22;30282;16.436;99.370;2023-04-25T02:51:46;34.60;99.90
12602;DHT22;30282;16.436;99.370;2023-04-25T02:54:15;34.60;99.90
12602;DHT22;30282;16.436;99.370;2023-04-25T02:56:46;34.80;99.90
12602;DHT22;30282;16.436;99.370;2023-04-25T02:59:15;34.80;99.90
12602;DHT22;30282;16.436;99.370;2023-04-25T03:01:45;34.90;99.90
12602;DHT22;30282;16.436;99.370;2023-04-25T03:04:14;35.10;99.90
12602;DHT22;30282;16.436;99.370;2023-04-25T03:06:43;35.10;99.90
12602;DHT22;30282;16.436;99.370;2023-04-25T03:09:12;35.20;99.90
12602;DHT22;30282;16.436;99.370;2023-04-25T03:11:41;35.30;99.90
12602;DHT22;30282;16.436;99.370;2023-04-25T03:14:12;35.30;99.90
12602;DHT22;30282;16.436;99.370;2023-04-25T03:16:42;35.40;99.90
12602;DHT22;30282;16.436;99.370;2023-04-25T03:19:11;35.40;99.90
12602;DHT22;30282;16.436;99.370;2023-04-25T03:21:42;35.50;99.90
12602;DHT22;30282;16.436;99.370;2023-04-25T03:24:12;35.50;99.90
12602;DHT22;30282;16.436;99.370;2023-04-25T03:26:41;35.50;99.90
12602;DHT22;30282;16.436;99.370;2023-04-25T03:29:12;35.60;99.90
12602;DHT22;30282;16.436;99.370;2023-04-25T03:31:41;35.70;99.90
12602;DHT22;30282;16.436;99.370;2023-04-25T03:34:10;35.80;99.90
12602;DHT22;30282;16.436;99.370;2023-04-25T03:36:41;35.90;99.90
12602;DHT22;30282;16.436;99.370;2023-04-25T03:39:10;35.90;99.90
12602;DHT22;30282;16.436;99.370;2023-04-25T03:41:39;36.00;99.90
12602;DHT22;30282;16.436;99.370;2023-04-25T03:44:09;36.10;99.90
12602;DHT22;30282;16.436;99.370;2023-04-25T03:46:39;36.20;99.90
12602;DHT22;30282;16.436;99.370;2023-04-25T03:49:09;36.30;99.90
12602;DHT22;30282;16.436;99.370;2023-04-25T03:51:38;36.30;99.90
12602;DHT22;30282;16.436;99.370;2023-04-25T03:54:07;36.30;99.90
12602;DHT22;30282;16.436;99.370;2023-04-25T03:56:36;36.30;99.90
12602;DHT22;30282;16.436;99.370;2023-04-25T03:59:05;36.30;99.90
12602;DHT22;30282;16.436;99.370;2023-04-25T04:01:35;36.40;99.90
12602;DHT22;30282;16.436;99.370;2023-04-25T04:04:06;36.40;99.90
12602;DHT22;30282;16.436;99.370;2023-04-25T04:06:35;36.60;99.90
12602;DHT22;30282;16.436;99.370;2023-04-25T04:09:04;36.60;99.90
12602;DHT22;30282;16.436;99.370;2023-04-25T04:11:36;36.70;99.90
12602;DHT22;30282;16.436;99.370;2023-04-25T04:14:06;36.70;99.90
12602;DHT22;30282;16.436;99.370;2023-04-25T04:16:36;36.80;99.90
12602;DHT22;30282;16.436;99.370;2023-04-25T04:19:07;36.90;99.90
12602;DHT22;30282;16.436;99.370;2023-04-25T04:21:37;36.90;99.90
12602;DHT22;30282;16.436;99.370;2023-04-25T04:24:06;37.00;99.90
12602;DHT22;30282;16.436;99.370;2023-04-25T04:26:35;37.20;99.90
12602;DHT22;30282;16.436;99.370;2023-04-25T04:29:05;37.30;99.90
12602;DHT22;30282;16.436;99.370;2023-04-25T04:31:35;37.30;99.90
12602;DHT22;30282;16.436;99.370;2023-04-25T04:34:06;37.40;99.90
12602;DHT22;30282;16.436;99.370;2023-04-25T04:36:39;37.30;99.90
12602;DHT22;30282;16.436;99.370;2023-04-25T04:39:08;37.40;99.90
12602;DHT22;30282;16.436;99.370;2023-04-25T04:41:38;37.40;99.90
12602;DHT22;30282;16.436;99.370;2023-04-25T04:44:07;37.40;99.90
12602;DHT22;30282;16.436;99.370;2023-04-25T04:46:36;37.40;99.90
12602;DHT22;30282;16.436;99.370;2023-04-25T04:49:11;37.50;99.90
12602;DHT22;30282;16.436;99.370;2023-04-25T04:51:40;37.60;99.90
12602;DHT22;30282;16.436;99.370;2023-04-25T04:54:11;37.70;99.90
12602;DHT22;30282;16.436;99.370;2023-04-25T04:56:40;37.70;99.90
12602;DHT22;30282;16.436;99.370;2023-04-25T04:59:10;37.90;99.90
12602;DHT22;30282;16.436;99.370;2023-04-25T05:01:39;38.00;99.90
12602;DHT22;30282;16.436;99.370;2023-04-25T05:04:10;37.90;99.90
12602;DHT22;30282;16.436;99.370;2023-04-25T05:06:42;38.00;99.90
12602;DHT22;30282;16.436;99.370;2023-04-25T05:09:11;38.00;99.90
12602;DHT22;30282;16.436;99.370;2023-04-25T05:11:41;38.10;99.90
12602;DHT22;30282;16.436;99.370;2023-04-25T05:14:11;38.20;99.90
12602;DHT22;30282;16.436;99.370;2023-04-25T05:16:40;38.30;99.90
12602;DHT22;30282;16.436;99.370;2023-04-25T05:19:11;38.40;99.90
12602;DHT22;30282;16.436;99.370;2023-04-25T05:21:40;38.40;99.90
12602;DHT22;30282;16.436;99.370;2023-04-25T05:24:10;38.50;99.90
12602;DHT22;30282;16.436;99.370;2023-04-25T05:26:39;38.50;99.90
12602;DHT22;30282;16.436;99.370;2023-04-25T05:29:08;38.60;99.90
12602;DHT22;30282;16.436;99.370;2023-04-25T05:31:37;38.70;99.90
12602;DHT22;30282;16.436;99.370;2023-04-25T05:34:06;38.70;99.90
12602;DHT22;30282;16.436;99.370;2023-04-25T05:36:37;38.80;99.90
12602;DHT22;30282;16.436;99.370;2023-04-25T05:39:06;38.80;99.90
12602;DHT22;30282;16.436;99.370;2023-04-25T05:41:35;38.80;99.90
12602;DHT22;30282;16.436;99.370;2023-04-25T05:44:05;38.80;99.90
12602;DHT22;30282;16.436;99.370;2023-04-25T05:46:34;38.90;99.90
12602;DHT22;30282;16.436;99.370;2023-04-25T05:49:03;39.00;99.90
12602;DHT22;30282;16.436;99.370;2023-04-25T05:51:32;39.00;99.90
12602;DHT22;30282;16.436;99.370;2023-04-25T05:54:03;39.00;99.90
12602;DHT22;30282;16.436;99.370;2023-04-25T05:56:32;38.90;99.90
12602;DHT22;30282;16.436;99.370;2023-04-25T05:59:01;38.80;99.90
12602;DHT22;30282;16.436;99.370;2023-04-25T06:01:31;38.90;99.90
12602;DHT22;30282;16.436;99.370;2023-04-25T06:04:00;39.00;99.90
12602;DHT22;30282;16.436;99.370;2023-04-25T06:06:29;39.10;99.90
12602;DHT22;30282;16.436;99.370;2023-04-25T06:08:58;39.20;99.90
12602;DHT22;30282;16.436;99.370;2023-04-25T06:11:29;39.10;99.90
12602;DHT22;30282;16.436;99.370;2023-04-25T06:13:58;39.10;99.90
12602;DHT22;30282;16.436;99.370;2023-04-25T06:16:27;39.20;99.90
12602;DHT22;30282;16.436;99.370;2023-04-25T06:18:57;39.30;99.90
12602;DHT22;30282;16.436;99.370;2023-04-25T06:21:26;39.30;99.90
12602;DHT22;30282;16.436;99.370;2023-04-25T06:23:55;39.30;99.90
12602;DHT22;30282;16.436;99.370;2023-04-25T06:26:24;39.40;99.90
12602;DHT22;30282;16.436;99.370;2023-04-25T06:28:55;39.60;99.90
12602;DHT22;30282;16.436;99.370;2023-04-25T06:31:24;39.70;99.90
12602;DHT22;30282;16.436;99.370;2023-04-25T06:33:54;39.90;99.90
12602;DHT22;30282;16.436;99.370;2023-04-25T06:36:23;39.90;99.90
12602;DHT22;30282;16.436;99.370;2023-04-25T06:38:53;39.90;99.90
12602;DHT22;30282;16.436;99.370;2023-04-25T06:41:22;39.80;99.90
12602;DHT22;30282;16.436;99.370;2023-04-25T06:43:51;39.70;99.90
12602;DHT22;30282;16.436;99.370;2023-04-25T06:46:22;39.70;99.90
12602;DHT22;30282;16.436;99.370;2023-04-25T06:48:51;39.80;99.90
12602;DHT22;30282;16.436;99.370;2023-04-25T06:51:20;39.80;99.90
12602;DHT22;30282;16.436;99.370;2023-04-25T06:53:51;39.80;99.90
12602;DHT22;30282;16.436;99.370;2023-04-25T06:56:21;39.80;99.90
12602;DHT22;30282;16.436;99.370;2023-04-25T06:58:50;39.90;99.90
12602;DHT22;30282;16.436;99.370;2023-04-25T07:01:21;39.90;99.90
12602;DHT22;30282;16.436;99.370;2023-04-25T07:03:50;39.70;99.90
12602;DHT22;30282;16.436;99.370;2023-04-25T07:06:19;39.60;99.90
12602;DHT22;30282;16.436;99.370;2023-04-25T07:08:48;39.60;99.90
12602;DHT22;30282;16.436;99.370;2023-04-25T07:11:18;39.70;99.90
12602;DHT22;30282;16.436;99.370;2023-04-25T07:13:47;39.70;99.90
12602;DHT22;30282;16.436;99.370;2023-04-25T07:16:17;39.80;99.90
12602;DHT22;30282;16.436;99.370;2023-04-25T07:18:51;39.80;99.90
12602;DHT22;30282;16.436;99.370;2023-04-25T07:21:23;39.90;99.90
12602;DHT22;30282;16.436;99.370;2023-04-25T07:23:52;39.80;99.90
12602;DHT22;30282;16.436;99.370;2023-04-25T07:26:21;39.70;99.90
12602;DHT22;30282;16.436;99.370;2023-04-25T07:28:50;39.60;99.90
12602;DHT22;30282;16.436;99.370;2023-04-25T07:31:19;39.30;99.70
12602;DHT22;30282;16.436;99.370;2023-04-25T07:33:50;39.10;99.60
12602;DHT22;30282;16.436;99.370;2023-04-25T07:36:20;38.90;99.90
12602;DHT22;30282;16.436;99.370;2023-04-25T07:38:54;38.90;99.40
12602;DHT22;30282;16.436;99.370;2023-04-25T07:41:26;38.70;99.50
12602;DHT22;30282;16.436;99.370;2023-04-25T07:43:58;38.70;99.90
12602;DHT22;30282;16.436;99.370;2023-04-25T07:46:27;38.70;99.90
12602;DHT22;30282;16.436;99.370;2023-04-25T07:48:58;38.60;99.90
12602;DHT22;30282;16.436;99.370;2023-04-25T07:51:27;38.70;99.90
12602;DHT22;30282;16.436;99.370;2023-04-25T07:53:56;38.60;99.90
12602;DHT22;30282;16.436;99.370;2023-04-25T07:56:26;38.50;99.90
12602;DHT22;30282;16.436;99.370;2023-04-25T07:58:58;38.50;99.90
12602;DHT22;30282;16.436;99.370;2023-04-25T08:01:33;38.50;99.60
12602;DHT22;30282;16.436;99.370;2023-04-25T08:04:07;38.40;99.90
12602;DHT22;30282;16.436;99.370;2023-04-25T08:06:36;38.40;99.90
12602;DHT22;30282;16.436;99.370;2023-04-25T08:09:05;38.50;99.90
12602;DHT22;30282;16.436;99.370;2023-04-25T08:11:34;38.50;99.90
12602;DHT22;30282;16.436;99.370;2023-04-25T08:14:04;38.50;99.90
12602;DHT22;30282;16.436;99.370;2023-04-25T08:16:34;38.50;99.90
12602;DHT22;30282;16.436;99.370;2023-04-25T08:19:05;38.50;99.90
12602;DHT22;30282;16.436;99.370;2023-04-25T08:21:34;38.50;99.90
12602;DHT22;30282;16.436;99.370;2023-04-25T08:24:03;38.50;99.90
12602;DHT22;30282;16.436;99.370;2023-04-25T08:26:33;38.50;99.90
12602;DHT22;30282;16.436;99.370;2023-04-25T08:29:04;38.50;99.90
12602;DHT22;30282;16.436;99.370;2023-04-25T08:31:33;38.50;99.90
12602;DHT22;30282;16.436;99.370;2023-04-25T08:34:07;38.50;99.90
12602;DHT22;30282;16.436;99.370;2023-04-25T08:36:36;38.50;99.90
12602;DHT22;30282;16.436;99.370;2023-04-25T08:39:05;38.50;99.90
12602;DHT22;30282;16.436;99.370;2023-04-25T08:41:36;38.50;99.90
12602;DHT22;30282;16.436;99.370;2023-04-25T08:44:06;38.60;99.90
12602;DHT22;30282;16.436;99.370;2023-04-25T08:46:36;38.70;99.90
12602;DHT22;30282;16.436;99.370;2023-04-25T08:49:08;38.70;99.90
12602;DHT22;30282;16.436;99.370;2023-04-25T08:51:45;38.70;99.90
12602;DHT22;30282;16.436;99.370;2023-04-25T08:54:16;38.80;99.90
12602;DHT22;30282;16.436;99.370;2023-04-25T08:56:48;38.80;99.90
12602;DHT22;30282;16.436;99.370;2023-04-25T08:59:18;38.90;99.90
12602;DHT22;30282;16.436;99.370;2023-04-25T09:01:47;38.90;99.90
12602;DHT22;30282;16.436;99.370;2023-04-25T09:04:20;38.90;99.90
12602;DHT22;30282;16.436;99.370;2023-04-25T09:06:49;39.00;99.90
12602;DHT22;30282;16.436;99.370;2023-04-25T09:09:18;39.00;99.90
12602;DHT22;30282;16.436;99.370;2023-04-25T09:11:48;39.10;99.90
12602;DHT22;30282;16.436;99.370;2023-04-25T09:14:18;39.20;99.90
12602;DHT22;30282;16.436;99.370;2023-04-25T09:16:59;39.20;99.80
12602;DHT22;30282;16.436;99.370;2023-04-25T09:19:30;39.20;99.20
12602;DHT22;30282;16.436;99.370;2023-04-25T09:22:02;39.10;98.70
12602;DHT22;30282;16.436;99.370;2023-04-25T09:24:35;39.00;98.40
12602;DHT22;30282;16.436;99.370;2023-04-25T09:27:05;39.00;98.50
12602;DHT22;30282;16.436;99.370;2023-04-25T09:29:36;39.00;98.30
12602;DHT22;30282;16.436;99.370;2023-04-25T09:32:28;38.90;98.00
12602;DHT22;30282;16.436;99.370;2023-04-25T09:34:59;38.90;97.50
12602;DHT22;30282;16.436;99.370;2023-04-25T09:37:29;38.90;96.80
12602;DHT22;30282;16.436;99.370;2023-04-25T09:39:59;38.90;97.30
12602;DHT22;30282;16.436;99.370;2023-04-25T09:42:32;38.90;97.20
12602;DHT22;30282;16.436;99.370;2023-04-25T09:45:03;38.90;97.50
12602;DHT22;30282;16.436;99.370;2023-04-25T09:47:32;38.80;97.30
12602;DHT22;30282;16.436;99.370;2023-04-25T09:50:14;38.90;97.20
12602;DHT22;30282;16.436;99.370;2023-04-25T09:52:44;38.80;97.80
12602;DHT22;30282;16.436;99.370;2023-04-25T09:55:13;38.70;97.60
12602;DHT22;30282;16.436;99.370;2023-04-25T09:57:43;38.70;98.10
12602;DHT22;30282;16.436;99.370;2023-04-25T10:00:15;38.70;97.80
12602;DHT22;30282;16.436;99.370;2023-04-25T10:02:47;38.70;98.50
12602;DHT22;30282;16.436;99.370;2023-04-25T10:05:22;38.80;98.90
12602;DHT22;30282;16.436;99.370;2023-04-25T10:07:52;38.70;98.80
12602;DHT22;30282;16.436;99.370;2023-04-25T10:10:22;38.70;98.80
12602;DHT22;30282;16.436;99.370;2023-04-25T10:12:54;38.70;98.80
12602;DHT22;30282;16.436;99.370;2023-04-25T10:15:24;38.70;98.90
12602;DHT22;30282;16.436;99.370;2023-04-25T10:17:53;38.70;99.10
12602;DHT22;30282;16.436;99.370;2023-04-25T10:20:24;38.50;99.00
12602;DHT22;30282;16.436;99.370;2023-04-25T10:22:55;38.50;99.40
12602;DHT22;30282;16.436;99.370;2023-04-25T10:25:26;38.40;99.60
12602;DHT22;30282;16.436;99.370;2023-04-25T10:31:01;38.30;99.90
12602;DHT22;30282;16.436;99.370;2023-04-25T10:33:33;38.20;99.90
12602;DHT22;30282;16.436;99.370;2023-04-25T10:36:11;38.20;99.90
12602;DHT22;30282;16.436;99.370;2023-04-25T10:38:54;38.10;99.90
12602;DHT22;30282;16.436;99.370;2023-04-25T10:41:24;38.10;99.90
12602;DHT22;30282;16.436;99.370;2023-04-25T10:44:00;38.10;99.90
12602;DHT22;30282;16.436;99.370;2023-04-25T10:46:33;38.00;99.90
12602;DHT22;30282;16.436;99.370;2023-04-25T10:49:03;38.00;99.90
12602;DHT22;30282;16.436;99.370;2023-04-25T10:51:34;38.00;99.90
12602;DHT22;30282;16.436;99.370;2023-04-25T10:54:06;38.00;99.90
12602;DHT22;30282;16.436;99.370;2023-04-25T10:56:38;37.90;99.90
12602;DHT22;30282;16.436;99.370;2023-04-25T10:59:09;37.90;99.90
12602;DHT22;30282;16.436;99.370;2023-04-25T11:01:40;37.90;99.90
12602;DHT22;30282;16.436;99.370;2023-04-25T11:04:25;37.80;99.90
12602;DHT22;30282;16.436;99.370;2023-04-25T11:07:09;37.80;99.90
12602;DHT22;30282;16.436;99.370;2023-04-25T11:09:42;37.80;99.90
12602;DHT22;30282;16.436;99.370;2023-04-25T11:12:11;37.80;99.90
12602;DHT22;30282;16.436;99.370;2023-04-25T11:14:40;37.70;99.90
12602;DHT22;30282;16.436;99.370;2023-04-25T11:17:09;37.60;99.90
12602;DHT22;30282;16.436;99.370;2023-04-25T11:19:39;37.60;99.90
12602;DHT22;30282;16.436;99.370;2023-04-25T11:22:10;37.50;99.90
12602;DHT22;30282;16.436;99.370;2023-04-25T11:24:40;37.40;99.90
12602;DHT22;30282;16.436;99.370;2023-04-25T11:27:10;37.30;99.90
12602;DHT22;30282;16.436;99.370;2023-04-25T11:29:39;37.20;99.90
12602;DHT22;30282;16.436;99.370;2023-04-25T11:32:09;37.20;99.90
12602;DHT22;30282;16.436;99.370;2023-04-25T11:34:38;37.10;99.90
12602;DHT22;30282;16.436;99.370;2023-04-25T11:37:09;37.10;99.90
12602;DHT22;30282;16.436;99.370;2023-04-25T11:39:42;37.00;99.90
12602;DHT22;30282;16.436;99.370;2023-04-25T11:42:12;36.90;99.90
12602;DHT22;30282;16.436;99.370;2023-04-25T11:44:41;36.80;99.90
12602;DHT22;30282;16.436;99.370;2023-04-25T11:47:11;36.80;99.90
12602;DHT22;30282;16.436;99.370;2023-04-25T11:49:40;36.60;99.90
12602;DHT22;30282;16.436;99.370;2023-04-25T11:52:11;36.60;99.90
12602;DHT22;30282;16.436;99.370;2023-04-25T11:54:40;36.60;99.90
12602;DHT22;30282;16.436;99.370;2023-04-25T11:57:10;36.60;99.90
12602;DHT22;30282;16.436;99.370;2023-04-25T11:59:40;36.50;99.90
12602;DHT22;30282;16.436;99.370;2023-04-25T12:02:24;36.50;99.90
12602;DHT22;30282;16.436;99.370;2023-04-25T12:04:54;36.40;99.90
12602;DHT22;30282;16.436;99.370;2023-04-25T12:07:31;36.40;99.90
12602;DHT22;30282;16.436;99.370;2023-04-25T12:10:04;36.30;99.90
12602;DHT22;30282;16.436;99.370;2023-04-25T12:12:33;36.30;99.90
12602;DHT22;30282;16.436;99.370;2023-04-25T12:15:13;36.20;99.90
12602;DHT22;30282;16.436;99.370;2023-04-25T12:17:46;36.20;99.90
12602;DHT22;30282;16.436;99.370;2023-04-25T12:20:17;36.10;99.90
12602;DHT22;30282;16.436;99.370;2023-04-25T12:22:49;36.10;99.90
12602;DHT22;30282;16.436;99.370;2023-04-25T12:25:36;36.10;99.90
12602;DHT22;30282;16.436;99.370;2023-04-25T12:28:15;36.10;99.90
12602;DHT22;30282;16.436;99.370;2023-04-25T12:30:56;36.10;99.90
12602;DHT22;30282;16.436;99.370;2023-04-25T12:33:26;36.00;99.90
12602;DHT22;30282;16.436;99.370;2023-04-25T12:35:56;35.90;99.90
12602;DHT22;30282;16.436;99.370;2023-04-25T12:38:28;35.90;99.90
12602;DHT22;30282;16.436;99.370;2023-04-25T12:40:58;35.80;99.90
12602;DHT22;30282;16.436;99.370;2023-04-25T12:43:27;35.70;99.90
12602;DHT22;30282;16.436;99.370;2023-04-25T12:45:57;35.60;99.90
12602;DHT22;30282;16.436;99.370;2023-04-25T12:48:26;35.60;99.90
12602;DHT22;30282;16.436;99.370;2023-04-25T12:50:55;35.60;99.90
12602;DHT22;30282;16.436;99.370;2023-04-25T12:53:26;35.60;99.90
12602;DHT22;30282;16.436;99.370;2023-04-25T12:55:55;35.50;99.90
12602;DHT22;30282;16.436;99.370;2023-04-25T12:58:24;35.40;99.90
12602;DHT22;30282;16.436;99.370;2023-04-25T13:00:53;35.30;99.90
12602;DHT22;30282;16.436;99.370;2023-04-25T13:03:22;35.20;99.90
12602;DHT22;30282;16.436;99.370;2023-04-25T13:05:55;35.20;99.90
12602;DHT22;30282;16.436;99.370;2023-04-25T13:08:26;35.20;99.90
12602;DHT22;30282;16.436;99.370;2023-04-25T13:10:55;35.20;99.90
12602;DHT22;30282;16.436;99.370;2023-04-25T13:13:25;35.10;99.90
12602;DHT22;30282;16.436;99.370;2023-04-25T13:15:55;35.00;99.90
12602;DHT22;30282;16.436;99.370;2023-04-25T13:18:24;34.90;99.90
12602;DHT22;30282;16.436;99.370;2023-04-25T13:20:54;34.90;99.90
12602;DHT22;30282;16.436;99.370;2023-04-25T13:23:26;34.90;99.90
12602;DHT22;30282;16.436;99.370;2023-04-25T13:25:58;34.90;99.90
12602;DHT22;30282;16.436;99.370;2023-04-25T13:28:29;34.90;99.90
12602;DHT22;30282;16.436;99.370;2023-04-25T13:30:58;34.90;99.90
12602;DHT22;30282;16.436;99.370;2023-04-25T13:33:28;34.90;99.90
12602;DHT22;30282;16.436;99.370;2023-04-25T13:35:57;34.90;99.90
12602;DHT22;30282;16.436;99.370;2023-04-25T13:38:45;34.80;99.90
12602;DHT22;30282;16.436;99.370;2023-04-25T13:41:18;34.70;99.90
12602;DHT22;30282;16.436;99.370;2023-04-25T13:43:50;34.70;99.90
12602;DHT22;30282;16.436;99.370;2023-04-25T13:46:20;34.60;99.90
12602;DHT22;30282;16.436;99.370;2023-04-25T13:48:49;34.60;99.90
12602;DHT22;30282;16.436;99.370;2023-04-25T13:51:20;34.50;99.90
12602;DHT22;30282;16.436;99.370;2023-04-25T13:53:51;34.40;99.90
12602;DHT22;30282;16.436;99.370;2023-04-25T13:56:23;34.30;99.90
12602;DHT22;30282;16.436;99.370;2023-04-25T13:58:54;34.20;99.90
12602;DHT22;30282;16.436;99.370;2023-04-25T14:01:23;34.20;99.90
12602;DHT22;30282;16.436;99.370;2023-04-25T14:03:53;34.20;99.90
12602;DHT22;30282;16.436;99.370;2023-04-25T14:06:22;34.20;99.90
12602;DHT22;30282;16.436;99.370;2023-04-25T14:08:54;34.20;99.90
12602;DHT22;30282;16.436;99.370;2023-04-25T14:11:23;34.20;99.90
12602;DHT22;30282;16.436;99.370;2023-04-25T14:13:52;34.10;99.90
12602;DHT22;30282;16.436;99.370;2023-04-25T14:16:21;34.00;99.90
12602;DHT22;30282;16.436;99.370;2023-04-25T14:18:53;34.00;99.90
12602;DHT22;30282;16.436;99.370;2023-04-25T14:21:22;34.00;99.90
12602;DHT22;30282;16.436;99.370;2023-04-25T14:23:53;34.00;99.90
12602;DHT22;30282;16.436;99.370;2023-04-25T14:26:22;33.90;99.90
12602;DHT22;30282;16.436;99.370;2023-04-25T14:28:52;33.90;99.90
12602;DHT22;30282;16.436;99.370;2023-04-25T14:31:21;33.90;99.90
12602;DHT22;30282;16.436;99.370;2023-04-25T14:33:50;33.80;99.90
12602;DHT22;30282;16.436;99.370;2023-04-25T14:36:19;33.80;99.90
12602;DHT22;30282;16.436;99.370;2023-04-25T14:38:56;33.70;99.90
12602;DHT22;30282;16.436;99.370;2023-04-25T14:41:29;33.60;99.90
12602;DHT22;30282;16.436;99.370;2023-04-25T14:43:58;33.60;99.90
12602;DHT22;30282;16.436;99.370;2023-04-25T14:46:28;33.50;99.90
12602;DHT22;30282;16.436;99.370;2023-04-25T14:48:57;33.40;99.90
12602;DHT22;30282;16.436;99.370;2023-04-25T14:51:26;33.30;99.90
12602;DHT22;30282;16.436;99.370;2023-04-25T14:53:57;33.40;99.90
12602;DHT22;30282;16.436;99.370;2023-04-25T14:56:26;33.40;99.90
12602;DHT22;30282;16.436;99.370;2023-04-25T14:58:55;33.40;99.90
12602;DHT22;30282;16.436;99.370;2023-04-25T15:01:25;33.40;99.90
12602;DHT22;30282;16.436;99.370;2023-04-25T15:03:54;33.40;99.90
12602;DHT22;30282;16.436;99.370;2023-04-25T15:06:24;33.50;99.90
12602;DHT22;30282;16.436;99.370;2023-04-25T15:08:53;33.30;99.90
12602;DHT22;30282;16.436;99.370;2023-04-25T15:11:25;33.30;99.90
12602;DHT22;30282;16.436;99.370;2023-04-25T15:13:54;33.20;99.90
12602;DHT22;30282;16.436;99.370;2023-04-25T15:16:23;33.20;99.90
12602;DHT22;30282;16.436;99.370;2023-04-25T15:18:53;33.20;99.90
12602;DHT22;30282;16.436;99.370;2023-04-25T15:21:22;33.20;99.90
12602;DHT22;30282;16.436;99.370;2023-04-25T15:23:52;33.10;99.90
12602;DHT22;30282;16.436;99.370;2023-04-25T15:26:21;33.10;99.90
12602;DHT22;30282;16.436;99.370;2023-04-25T15:28:52;33.10;99.90
12602;DHT22;30282;16.436;99.370;2023-04-25T15:31:22;33.10;99.90
12602;DHT22;30282;16.436;99.370;2023-04-25T15:33:52;33.10;99.90
12602;DHT22;30282;16.436;99.370;2023-04-25T15:36:21;33.00;99.90
12602;DHT22;30282;16.436;99.370;2023-04-25T15:38:50;33.00;99.90